Time;durP1;ratioP1;P1;durP2;ratioP2;P2;SDS_P1;SDS_P2;PMS_P1;PMS_P2;Temp;Humidity;BMP_temperature;BMP_pressure;BME280_temperature;BME280_humidity;BME280_pressure;Samples;Min_cycle;Max_cycle;Signal;HPM_P1;HPM_P2
2024/03/23 00:01:37;;;;;;;17.80;4.10;;;;;;;;;;5041485;28;20451;-77
2024/03/23 00:04:03;;;;;;;16.17;2.77;;;;;;;;;;5045018;28;20435;-76
2024/03/23 00:06:30;;;;;;;21.50;4.10;;;;;;;;;;5034170;28;20432;-80
2024/03/23 00:08:56;;;;;;;15.80;3.53;;;;;;;;;;5034433;28;20427;-77
2024/03/23 00:11:22;;;;;;;20.00;4.00;;;;;;;;;;5045372;28;20477;-79
2024/03/23 00:13:49;;;;;;;20.27;4.80;;;;;;;;;;5054970;28;20423;-77
2024/03/23 00:16:15;;;;;;;14.53;3.67;;;;;;;;;;5055360;28;20437;-77
2024/03/23 00:18:41;;;;;;;27.00;4.87;;;;;;;;;;5055262;28;20904;-78
2024/03/23 00:21:09;;;;;;;26.23;5.00;;;;;;;;;;5055220;28;20415;-77
2024/03/23 00:23:35;;;;;;;19.23;4.60;;;;;;;;;;5054180;28;20414;-80
2024/03/23 00:26:01;;;;;;;18.47;5.10;;;;;;;;;;5055098;28;20429;-81
2024/03/23 00:28:28;;;;;;;13.73;3.60;;;;;;;;;;5055008;28;20476;-83
2024/03/23 00:30:54;;;;;;;23.97;4.10;;;;;;;;;;5054952;28;20493;-77
2024/03/23 00:33:20;;;;;;;23.00;4.77;;;;;;;;;;5055026;28;20511;-77
2024/03/23 00:35:47;;;;;;;17.90;4.70;;;;;;;;;;5054994;28;20422;-84
2024/03/23 00:38:13;;;;;;;16.33;4.20;;;;;;;;;;5054539;28;20458;-84
2024/03/23 00:40:39;;;;;;;17.30;4.13;;;;;;;;;;5054688;28;20419;-79
2024/03/23 00:43:06;;;;;;;15.00;4.30;;;;;;;;;;5045910;28;20432;-80
2024/03/23 00:45:33;;;;;;;17.27;2.53;;;;;;;;;;5034745;28;20413;-77
2024/03/23 00:47:59;;;;;;;13.03;3.37;;;;;;;;;;5034572;28;20424;-76
2024/03/23 00:50:25;;;;;;;18.90;4.23;;;;;;;;;;5033247;28;20471;-80
2024/03/23 00:52:51;;;;;;;17.93;4.20;;;;;;;;;;5034503;28;20475;-81
2024/03/23 00:55:17;;;;;;;20.60;2.80;;;;;;;;;;5033160;28;20413;-77
2024/03/23 00:57:43;;;;;;;13.17;3.87;;;;;;;;;;5034690;28;20452;-81
2024/03/23 01:00:10;;;;;;;19.00;3.70;;;;;;;;;;5051417;28;20184;-76
2024/03/23 01:02:36;;;;;;;22.77;4.30;;;;;;;;;;5054704;28;20419;-76
2024/03/23 01:05:02;;;;;;;18.87;4.43;;;;;;;;;;5054700;28;20472;-76
2024/03/23 01:07:28;;;;;;;21.40;3.40;;;;;;;;;;5054678;28;20475;-77
2024/03/23 01:09:54;;;;;;;21.63;3.33;;;;;;;;;;5054299;28;20420;-78
2024/03/23 01:12:20;;;;;;;17.97;3.77;;;;;;;;;;5054434;28;20993;-76
2024/03/23 01:14:46;;;;;;;18.00;3.70;;;;;;;;;;5053584;28;20419;-78
2024/03/23 01:17:12;;;;;;;21.40;5.10;;;;;;;;;;5054160;28;20545;-83
2024/03/23 01:19:39;;;;;;;24.40;4.20;;;;;;;;;;5053866;28;20427;-77
2024/03/23 01:22:05;;;;;;;15.00;2.77;;;;;;;;;;5054131;28;20449;-82
2024/03/23 01:24:31;;;;;;;16.93;2.53;;;;;;;;;;5053642;28;20450;-83
2024/03/23 01:26:57;;;;;;;17.60;4.10;;;;;;;;;;5053534;28;20512;-79
2024/03/23 01:29:23;;;;;;;14.83;3.47;;;;;;;;;;5054121;28;20466;-78
2024/03/23 01:31:49;;;;;;;13.80;2.80;;;;;;;;;;5052742;28;20514;-78
2024/03/23 01:34:15;;;;;;;16.43;2.80;;;;;;;;;;5053366;28;20415;-77
2024/03/23 01:36:41;;;;;;;20.27;3.90;;;;;;;;;;5053620;28;20184;-77
2024/03/23 01:39:09;;;;;;;13.27;4.33;;;;;;;;;;5053137;28;20421;-77
2024/03/23 01:41:35;;;;;;;24.53;5.10;;;;;;;;;;5053621;28;20417;-83
2024/03/23 01:44:05;;;;;;;14.00;3.30;;;;;;;;;;5053909;28;20544;-80
2024/03/23 01:46:31;;;;;;;16.97;3.20;;;;;;;;;;5053608;28;20782;-83
2024/03/23 01:48:57;;;;;;;18.60;4.53;;;;;;;;;;5053658;28;20518;-85
2024/03/23 01:51:23;;;;;;;17.67;3.27;;;;;;;;;;5053352;28;20488;-85
2024/03/23 01:53:49;;;;;;;15.87;4.50;;;;;;;;;;5051924;28;20208;-81
2024/03/23 01:56:15;;;;;;;17.70;3.27;;;;;;;;;;5053539;28;20414;-77
2024/03/23 01:58:41;;;;;;;15.40;3.03;;;;;;;;;;5053334;28;20805;-78
2024/03/23 02:01:07;;;;;;;19.63;3.50;;;;;;;;;;5053236;28;20411;-77
2024/03/23 02:03:33;;;;;;;21.23;3.03;;;;;;;;;;5053496;28;20407;-83
2024/03/23 02:05:59;;;;;;;21.20;4.83;;;;;;;;;;5053371;28;20926;-78
2024/03/23 02:08:25;;;;;;;13.20;3.43;;;;;;;;;;5053107;28;20402;-77
2024/03/23 02:10:51;;;;;;;15.00;3.47;;;;;;;;;;5053217;28;20913;-76
2024/03/23 02:13:18;;;;;;;10.67;2.60;;;;;;;;;;5053163;28;20422;-76
2024/03/23 02:15:44;;;;;;;16.17;3.43;;;;;;;;;;5053166;28;20411;-76
2024/03/23 02:18:10;;;;;;;19.97;3.87;;;;;;;;;;5053006;28;20418;-85
2024/03/23 02:20:37;;;;;;;14.20;4.13;;;;;;;;;;5051587;28;20947;-81
2024/03/23 02:23:03;;;;;;;14.13;3.73;;;;;;;;;;5052732;28;20416;-77
2024/03/23 02:25:29;;;;;;;17.03;3.70;;;;;;;;;;5052822;28;20426;-78
2024/03/23 02:27:55;;;;;;;12.00;2.70;;;;;;;;;;5053020;28;20419;-78
2024/03/23 02:30:21;;;;;;;22.20;3.80;;;;;;;;;;5052922;28;20419;-78
2024/03/23 02:32:47;;;;;;;18.10;3.33;;;;;;;;;;5052813;28;20536;-79
2024/03/23 02:35:13;;;;;;;20.10;4.27;;;;;;;;;;5053195;28;20402;-81
2024/03/23 02:37:39;;;;;;;21.27;4.00;;;;;;;;;;5053022;28;20423;-76
2024/03/23 02:40:05;;;;;;;15.63;4.17;;;;;;;;;;5052773;28;20910;-80
2024/03/23 02:42:31;;;;;;;15.70;4.00;;;;;;;;;;5052944;28;20430;-78
2024/03/23 02:44:57;;;;;;;13.23;4.20;;;;;;;;;;5053066;28;20408;-80
2024/03/23 02:47:23;;;;;;;20.40;3.70;;;;;;;;;;5052676;28;20424;-78
2024/03/23 02:49:49;;;;;;;19.53;3.40;;;;;;;;;;5052781;28;20515;-80
2024/03/23 02:52:15;;;;;;;12.47;2.33;;;;;;;;;;5052735;28;20212;-85
2024/03/23 02:54:44;;;;;;;18.03;3.43;;;;;;;;;;5052468;28;20194;-77
2024/03/23 02:57:10;;;;;;;13.57;3.67;;;;;;;;;;5052349;28;20448;-76
2024/03/23 02:59:36;;;;;;;19.17;3.57;;;;;;;;;;5052860;28;20414;-80
2024/03/23 03:02:04;;;;;;;15.53;4.03;;;;;;;;;;5053895;28;20457;-77
2024/03/23 03:04:30;;;;;;;16.47;3.40;;;;;;;;;;5059578;28;20413;-82
2024/03/23 03:06:56;;;;;;;15.30;2.90;;;;;;;;;;5057149;28;20923;-82
2024/03/23 03:09:22;;;;;;;13.47;2.50;;;;;;;;;;5052818;28;20430;-80
2024/03/23 03:11:47;;;;;;;19.87;4.17;;;;;;;;;;5052823;28;20470;-76
2024/03/23 03:14:13;;;;;;;8.60;1.80;;;;;;;;;;5060975;22;20972;-76
2024/03/23 03:16:39;;;;;;;19.60;3.73;;;;;;;;;;5012669;28;20404;-78
2024/03/23 03:19:06;;;;;;;13.93;4.00;;;;;;;;;;5012816;28;20445;-79
2024/03/23 03:21:32;;;;;;;12.70;2.80;;;;;;;;;;5027959;28;20419;-80
2024/03/23 03:23:58;;;;;;;21.20;2.90;;;;;;;;;;5012411;28;20416;-79
2024/03/23 03:26:24;;;;;;;12.20;2.67;;;;;;;;;;5012444;28;20413;-82
2024/03/23 03:28:50;;;;;;;10.57;3.00;;;;;;;;;;5011424;28;20518;-78
2024/03/23 03:31:16;;;;;;;10.90;2.70;;;;;;;;;;5012506;28;20471;-77
2024/03/23 03:33:43;;;;;;;13.43;2.37;;;;;;;;;;5012585;28;20443;-76
2024/03/23 03:36:09;;;;;;;17.10;3.40;;;;;;;;;;5011247;28;20419;-79
2024/03/23 03:38:35;;;;;;;20.10;4.20;;;;;;;;;;5012109;28;20474;-79
2024/03/23 03:41:01;;;;;;;21.50;3.70;;;;;;;;;;5012552;28;20411;-78
2024/03/23 03:43:27;;;;;;;14.03;2.50;;;;;;;;;;5010957;28;20470;-79
2024/03/23 03:45:57;;;;;;;17.33;3.47;;;;;;;;;;5000417;28;20883;-81
2024/03/23 03:48:23;;;;;;;17.33;3.27;;;;;;;;;;5001679;28;20446;-80
2024/03/23 03:50:50;;;;;;;14.47;3.87;;;;;;;;;;5003479;28;20450;-76
2024/03/23 03:53:16;;;;;;;21.00;3.37;;;;;;;;;;5001710;28;20425;-76
2024/03/23 03:55:42;;;;;;;13.77;3.73;;;;;;;;;;5002125;28;20555;-76
2024/03/23 03:58:08;;;;;;;34.27;4.23;;;;;;;;;;5003596;28;20521;-81
2024/03/23 04:00:35;;;;;;;18.10;3.53;;;;;;;;;;5003893;28;20471;-80
2024/03/23 04:03:01;;;;;;;11.93;3.17;;;;;;;;;;5004819;28;20417;-78
2024/03/23 04:05:27;;;;;;;13.03;3.63;;;;;;;;;;5005456;28;21290;-77
2024/03/23 04:07:53;;;;;;;16.03;3.53;;;;;;;;;;5004681;28;20433;-78
2024/03/23 04:10:19;;;;;;;13.67;2.30;;;;;;;;;;5005786;28;20415;-78
2024/03/23 04:12:45;;;;;;;23.47;3.97;;;;;;;;;;5006473;28;20474;-77
2024/03/23 04:15:12;;;;;;;12.63;2.73;;;;;;;;;;5004776;28;20532;-78
2024/03/23 04:17:38;;;;;;;13.87;2.50;;;;;;;;;;5005967;28;20444;-80
2024/03/23 04:20:08;;;;;;;14.17;3.07;;;;;;;;;;5005012;28;20515;-80
2024/03/23 04:22:34;;;;;;;10.77;3.40;;;;;;;;;;5004567;28;20425;-79
2024/03/23 04:25:06;;;;;;;14.33;4.17;;;;;;;;;;5005491;28;20518;-79
2024/03/23 04:27:32;;;;;;;15.33;3.90;;;;;;;;;;5006566;28;20412;-79
2024/03/23 04:30:00;;;;;;;12.17;1.97;;;;;;;;;;5005264;28;20425;-78
2024/03/23 04:32:26;;;;;;;12.03;2.50;;;;;;;;;;5004470;28;20464;-80
2024/03/23 04:34:52;;;;;;;22.70;4.80;;;;;;;;;;5006421;28;20777;-77
2024/03/23 04:37:18;;;;;;;14.13;3.23;;;;;;;;;;5005100;28;20424;-78
2024/03/23 04:39:44;;;;;;;14.90;3.20;;;;;;;;;;5004180;28;20414;-77
2024/03/23 04:42:10;;;;;;;12.30;2.30;;;;;;;;;;5006072;28;20561;-80
2024/03/23 04:44:36;;;;;;;15.60;2.47;;;;;;;;;;5004536;28;20416;-77
2024/03/23 04:47:02;;;;;;;16.20;2.33;;;;;;;;;;5004946;28;20919;-78
2024/03/23 04:49:28;;;;;;;20.60;3.03;;;;;;;;;;5006073;28;20423;-79
2024/03/23 04:51:53;;;;;;;14.73;2.93;;;;;;;;;;5004099;28;20829;-77
2024/03/23 04:54:19;;;;;;;22.40;3.83;;;;;;;;;;5004720;28;20404;-80
2024/03/23 04:56:46;;;;;;;14.03;3.80;;;;;;;;;;5005762;28;20429;-80
2024/03/23 04:59:12;;;;;;;14.83;2.53;;;;;;;;;;5003868;28;20419;-77
2024/03/23 05:01:40;;;;;;;17.97;5.80;;;;;;;;;;5005199;28;20486;-78
2024/03/23 05:04:06;;;;;;;16.17;3.00;;;;;;;;;;5005675;28;20449;-77
2024/03/23 05:06:32;;;;;;;11.33;3.27;;;;;;;;;;5003628;28;20417;-77
2024/03/23 05:08:58;;;;;;;16.70;4.80;;;;;;;;;;5004691;28;20597;-77
2024/03/23 05:11:24;;;;;;;15.03;2.73;;;;;;;;;;5005071;28;20550;-78
2024/03/23 05:13:49;;;;;;;15.20;2.70;;;;;;;;;;5003418;28;20417;-82
2024/03/23 05:16:15;;;;;;;17.87;4.30;;;;;;;;;;5005330;28;20447;-78
2024/03/23 05:18:41;;;;;;;21.97;3.50;;;;;;;;;;5004858;28;20454;-78
2024/03/23 05:21:07;;;;;;;23.87;3.43;;;;;;;;;;5003671;28;21904;-77
2024/03/23 05:23:33;;;;;;;15.43;2.70;;;;;;;;;;5005044;28;20423;-77
2024/03/23 05:25:59;;;;;;;11.07;2.40;;;;;;;;;;5004234;28;20480;-78
2024/03/23 05:28:25;;;;;;;9.00;2.13;;;;;;;;;;5003756;28;20426;-76
2024/03/23 05:30:53;;;;;;;13.37;2.57;;;;;;;;;;5005180;28;20413;-78
2024/03/23 05:33:20;;;;;;;16.17;3.53;;;;;;;;;;5004134;28;20431;-78
2024/03/23 05:35:46;;;;;;;12.20;2.57;;;;;;;;;;5003407;28;20447;-77
2024/03/23 05:38:12;;;;;;;20.13;3.57;;;;;;;;;;5004785;28;20427;-77
2024/03/23 05:40:40;;;;;;;14.90;3.60;;;;;;;;;;5003860;28;20523;-77
2024/03/23 05:43:06;;;;;;;21.03;3.57;;;;;;;;;;5002010;28;20499;-77
2024/03/23 05:45:32;;;;;;;20.10;3.87;;;;;;;;;;5005008;28;20407;-77
2024/03/23 05:47:58;;;;;;;15.70;3.13;;;;;;;;;;5003672;28;20791;-77
2024/03/23 05:50:24;;;;;;;15.07;2.40;;;;;;;;;;5003462;28;20466;-77
2024/03/23 05:52:50;;;;;;;17.37;3.77;;;;;;;;;;5004402;28;20966;-77
2024/03/23 05:55:16;;;;;;;17.90;2.57;;;;;;;;;;5003339;28;20450;-77
2024/03/23 05:57:42;;;;;;;13.83;2.50;;;;;;;;;;5003621;28;20436;-77
2024/03/23 06:00:15;;;;;;;12.03;3.20;;;;;;;;;;5004763;28;20473;-77
2024/03/23 06:02:45;;;;;;;12.40;2.60;;;;;;;;;;5003870;28;20505;-77
2024/03/23 06:05:11;;;;;;;15.97;4.30;;;;;;;;;;5002632;28;20802;-77
2024/03/23 06:07:37;;;;;;;16.03;2.20;;;;;;;;;;5003633;28;20455;-77
2024/03/23 06:10:03;;;;;;;17.87;3.70;;;;;;;;;;5004109;28;20401;-77
2024/03/23 06:12:29;;;;;;;11.23;2.53;;;;;;;;;;5002334;28;20473;-77
2024/03/23 06:14:55;;;;;;;14.40;2.37;;;;;;;;;;5004023;28;20459;-79
2024/03/23 06:17:21;;;;;;;14.37;3.03;;;;;;;;;;5003661;28;20647;-76
2024/03/23 06:19:47;;;;;;;22.87;4.07;;;;;;;;;;5002582;28;20420;-77
2024/03/23 06:22:13;;;;;;;14.73;3.97;;;;;;;;;;5003693;28;20421;-77
2024/03/23 06:24:39;;;;;;;15.47;3.50;;;;;;;;;;5003244;28;20795;-80
2024/03/23 06:27:05;;;;;;;13.43;3.17;;;;;;;;;;5002750;28;20425;-77
2024/03/23 06:29:32;;;;;;;13.93;2.40;;;;;;;;;;5004261;28;20414;-78
2024/03/23 06:31:58;;;;;;;11.50;5.13;;;;;;;;;;5002877;28;20837;-78
2024/03/23 06:34:24;;;;;;;23.20;4.30;;;;;;;;;;5002794;28;20408;-78
2024/03/23 06:36:50;;;;;;;12.20;3.00;;;;;;;;;;5004222;28;20432;-76
2024/03/23 06:39:16;;;;;;;9.43;3.10;;;;;;;;;;5002298;28;20463;-77
2024/03/23 06:41:43;;;;;;;8.83;2.30;;;;;;;;;;5002957;28;20428;-77
2024/03/23 06:44:08;;;;;;;14.50;3.47;;;;;;;;;;5004103;28;20413;-77
2024/03/23 06:46:34;;;;;;;16.13;3.20;;;;;;;;;;5002214;28;20430;-78
2024/03/23 06:49:00;;;;;;;13.13;3.23;;;;;;;;;;5001889;28;20405;-77
2024/03/23 06:51:26;;;;;;;14.67;2.63;;;;;;;;;;5003641;28;20466;-77
2024/03/23 06:53:52;;;;;;;20.57;4.40;;;;;;;;;;5001620;28;20181;-76
2024/03/23 06:56:18;;;;;;;15.37;3.30;;;;;;;;;;5004476;28;20416;-79
2024/03/23 06:58:44;;;;;;;9.83;3.40;;;;;;;;;;5002579;28;20632;-79
2024/03/23 07:01:12;;;;;;;9.33;1.90;;;;;;;;;;5004021;28;20176;-77
2024/03/23 07:03:38;;;;;;;12.70;2.67;;;;;;;;;;5002554;28;20206;-77
2024/03/23 07:06:04;;;;;;;11.30;3.07;;;;;;;;;;5001345;28;20925;-78
2024/03/23 07:08:30;;;;;;;9.87;2.17;;;;;;;;;;5003494;28;20256;-77
2024/03/23 07:10:56;;;;;;;17.70;4.13;;;;;;;;;;5002041;28;20414;-78
2024/03/23 07:13:22;;;;;;;13.37;2.77;;;;;;;;;;5002773;28;20233;-78
2024/03/23 07:15:59;;;;;;;11.93;2.53;;;;;;;;;;5003560;28;20784;-78
2024/03/23 07:18:25;;;;;;;13.33;3.83;;;;;;;;;;5003325;28;20173;-78
2024/03/23 07:20:56;;;;;;;10.17;2.70;;;;;;;;;;5001671;28;20414;-79
2024/03/23 07:23:22;;;;;;;12.40;3.47;;;;;;;;;;5002390;28;20180;-81
2024/03/23 07:26:01;;;;;;;11.10;2.00;;;;;;;;;;5003697;28;20413;-77
2024/03/23 07:28:31;;;;;;;10.90;3.03;;;;;;;;;;5024355;28;20430;-75
2024/03/23 07:31:04;;;;;;;9.03;2.20;;;;;;;;;;5001942;28;20931;-77
2024/03/23 07:33:30;;;;;;;13.50;2.40;;;;;;;;;;5005587;28;20478;-78
2024/03/23 07:35:56;;;;;;;12.07;2.10;;;;;;;;;;5005751;28;20413;-78
2024/03/23 07:38:22;;;;;;;13.80;2.23;;;;;;;;;;5005940;28;20465;-79
2024/03/23 07:40:54;;;;;;;13.67;3.90;;;;;;;;;;5007248;28;20419;-77
2024/03/23 07:43:20;;;;;;;10.47;2.57;;;;;;;;;;5006230;28;20603;-78
2024/03/23 07:45:51;;;;;;;18.50;2.80;;;;;;;;;;5005707;28;20419;-82
2024/03/23 07:48:17;;;;;;;12.60;2.17;;;;;;;;;;5006698;28;20170;-79
2024/03/23 07:50:43;;;;;;;11.70;3.27;;;;;;;;;;5006488;28;20490;-78
2024/03/23 07:53:09;;;;;;;16.30;4.80;;;;;;;;;;5004752;28;20237;-79
2024/03/23 07:55:35;;;;;;;10.57;2.30;;;;;;;;;;5006936;28;20174;-77
2024/03/23 07:58:01;;;;;;;12.37;2.53;;;;;;;;;;5006444;28;20632;-79
2024/03/23 08:00:27;;;;;;;8.37;1.90;;;;;;;;;;5005232;28;20171;-76
2024/03/23 08:02:53;;;;;;;9.60;2.83;;;;;;;;;;5006929;28;20218;-76
2024/03/23 08:05:18;;;;;;;13.97;3.70;;;;;;;;;;5005611;28;20629;-80
2024/03/23 08:07:44;;;;;;;8.77;2.87;;;;;;;;;;5005171;28;20190;-76
2024/03/23 08:10:12;;;;;;;9.23;1.90;;;;;;;;;;5006845;28;20244;-75
2024/03/23 08:12:38;;;;;;;8.07;2.20;;;;;;;;;;5005200;28;20354;-74
2024/03/23 08:15:04;;;;;;;11.87;2.17;;;;;;;;;;5005122;28;20502;-75
2024/03/23 08:17:30;;;;;;;15.23;2.00;;;;;;;;;;5006429;28;20181;-75
2024/03/23 08:20:17;;;;;;;12.10;2.90;;;;;;;;;;5004911;28;20500;-78
2024/03/23 08:22:43;;;;;;;12.17;2.50;;;;;;;;;;5026368;28;20508;-75
2024/03/23 08:25:11;;;;;;;14.43;4.43;;;;;;;;;;5006363;28;20789;-76
2024/03/23 08:27:37;;;;;;;12.13;2.80;;;;;;;;;;5005072;28;20825;-76
2024/03/23 08:30:03;;;;;;;8.00;2.63;;;;;;;;;;5003686;28;20410;-77
2024/03/23 08:32:29;;;;;;;6.17;1.40;;;;;;;;;;5006250;28;20477;-78
2024/03/23 08:34:58;;;;;;;8.93;2.17;;;;;;;;;;5004696;28;20760;-78
2024/03/23 08:37:24;;;;;;;10.50;2.40;;;;;;;;;;5003304;28;20426;-77
2024/03/23 08:39:52;;;;;;;9.60;2.10;;;;;;;;;;5005413;28;20848;-76
2024/03/23 08:42:18;;;;;;;10.20;2.67;;;;;;;;;;5004892;28;20415;-76
2024/03/23 08:44:46;;;;;;;8.93;1.93;;;;;;;;;;5004621;28;20956;-77
2024/03/23 08:47:12;;;;;;;9.47;2.47;;;;;;;;;;5006119;28;20501;-76
2024/03/23 08:49:38;;;;;;;10.37;2.17;;;;;;;;;;5004630;28;20887;-76
2024/03/23 08:52:04;;;;;;;12.50;2.60;;;;;;;;;;5002761;28;20468;-76
2024/03/23 08:54:31;;;;;;;9.27;2.70;;;;;;;;;;5005900;28;20417;-76
2024/03/23 08:56:57;;;;;;;13.30;3.67;;;;;;;;;;5004338;28;20418;-76
2024/03/23 08:59:23;;;;;;;7.23;2.93;;;;;;;;;;5004727;28;20414;-76
2024/03/23 09:01:49;;;;;;;15.33;3.50;;;;;;;;;;5005775;28;20423;-76
2024/03/23 09:04:15;;;;;;;15.40;3.53;;;;;;;;;;5004009;28;20418;-76
2024/03/23 09:06:44;;;;;;;11.10;3.23;;;;;;;;;;5004428;28;20413;-76
2024/03/23 09:09:10;;;;;;;8.83;1.87;;;;;;;;;;5005930;28;20419;-75
2024/03/23 09:11:37;;;;;;;5.40;1.83;;;;;;;;;;5004059;28;20823;-75
2024/03/23 09:14:03;;;;;;;13.63;2.77;;;;;;;;;;5004550;28;20454;-75
2024/03/23 09:16:29;;;;;;;9.27;2.20;;;;;;;;;;5003751;28;20917;-75
2024/03/23 09:18:55;;;;;;;8.07;2.50;;;;;;;;;;5003672;28;20417;-75
2024/03/23 09:21:21;;;;;;;11.80;2.40;;;;;;;;;;5004642;28;20413;-76
2024/03/23 09:23:47;;;;;;;7.63;1.80;;;;;;;;;;5005012;28;20430;-76
2024/03/23 09:26:13;;;;;;;10.00;2.23;;;;;;;;;;5003457;28;20567;-76
2024/03/23 09:28:39;;;;;;;7.83;2.23;;;;;;;;;;5004560;28;20475;-76
2024/03/23 09:31:06;;;;;;;11.77;1.90;;;;;;;;;;5004742;28;20416;-76
2024/03/23 09:33:33;;;;;;;10.50;2.27;;;;;;;;;;5003252;28;20420;-76
2024/03/23 09:36:04;;;;;;;7.70;1.47;;;;;;;;;;5004653;28;20434;-76
2024/03/23 09:38:30;;;;;;;5.33;1.43;;;;;;;;;;5004855;28;20405;-75
2024/03/23 09:40:57;;;;;;;7.73;2.57;;;;;;;;;;5003400;28;20506;-77
2024/03/23 09:43:25;;;;;;;6.50;1.40;;;;;;;;;;5002640;28;20813;-77
2024/03/23 09:45:51;;;;;;;5.03;1.60;;;;;;;;;;5005062;28;20417;-77
2024/03/23 09:48:18;;;;;;;6.93;1.20;;;;;;;;;;5003516;28;20441;-76
2024/03/23 09:50:44;;;;;;;6.70;0.93;;;;;;;;;;5003862;28;20412;-75
2024/03/23 09:53:11;;;;;;;5.00;1.53;;;;;;;;;;5003222;28;20857;-75
2024/03/23 09:55:38;;;;;;;10.70;2.50;;;;;;;;;;5001376;28;20423;-75
2024/03/23 09:58:08;;;;;;;8.23;1.10;;;;;;;;;;5002313;28;20424;-75
2024/03/23 10:00:34;;;;;;;6.17;1.30;;;;;;;;;;5004884;28;20414;-76
2024/03/23 10:03:03;;;;;;;7.90;1.57;;;;;;;;;;5002323;28;20438;-76
2024/03/23 10:05:32;;;;;;;7.00;2.03;;;;;;;;;;5002794;28;20411;-75
2024/03/23 10:07:58;;;;;;;8.53;2.23;;;;;;;;;;5003912;28;20417;-75
2024/03/23 10:10:25;;;;;;;7.00;2.50;;;;;;;;;;5003920;28;20409;-75
2024/03/23 10:12:51;;;;;;;6.83;1.70;;;;;;;;;;5002524;28;20497;-75
2024/03/23 10:15:19;;;;;;;7.57;1.20;;;;;;;;;;5004007;28;20525;-75
2024/03/23 10:17:45;;;;;;;8.53;1.27;;;;;;;;;;5003865;28;20834;-75
2024/03/23 10:20:11;;;;;;;9.47;1.87;;;;;;;;;;5002128;28;20412;-75
2024/03/23 10:22:38;;;;;;;5.97;0.70;;;;;;;;;;4993437;28;20914;-75
2024/03/23 10:25:08;;;;;;;3.90;0.97;;;;;;;;;;4994142;28;20276;-75
2024/03/23 10:27:34;;;;;;;4.20;1.50;;;;;;;;;;4994018;28;20411;-75
2024/03/23 10:30:09;;;;;;;10.53;1.50;;;;;;;;;;4994119;28;20518;-75
2024/03/23 10:32:35;;;;;;;7.60;2.43;;;;;;;;;;4992898;28;20475;-77
2024/03/23 10:35:22;;;;;;;8.20;2.07;;;;;;;;;;4993997;28;20765;-76
2024/03/23 10:37:49;;;;;;;9.87;1.37;;;;;;;;;;4993598;28;20410;-76
2024/03/23 10:40:15;;;;;;;6.30;1.60;;;;;;;;;;4993927;28;20481;-75
2024/03/23 10:42:41;;;;;;;9.40;1.30;;;;;;;;;;4993892;28;20413;-77
2024/03/23 10:45:07;;;;;;;7.03;1.27;;;;;;;;;;4993751;28;20430;-77
2024/03/23 10:47:35;;;;;;;5.50;1.63;;;;;;;;;;4992120;28;20481;-76
2024/03/23 10:50:01;;;;;;;7.40;1.77;;;;;;;;;;5011166;28;20422;-77
2024/03/23 10:52:27;;;;;;;6.00;0.67;;;;;;;;;;5012741;28;20473;-77
2024/03/23 10:54:53;;;;;;;3.67;0.60;;;;;;;;;;5013162;28;20850;-78
2024/03/23 10:57:22;;;;;;;5.93;1.10;;;;;;;;;;5013144;28;20446;-77
2024/03/23 10:59:47;;;;;;;8.13;1.20;;;;;;;;;;5013035;28;20655;-77
2024/03/23 11:02:20;;;;;;;9.53;1.37;;;;;;;;;;5013076;28;20410;-76
2024/03/23 11:04:49;;;;;;;6.73;2.10;;;;;;;;;;5007125;28;20442;-76
2024/03/23 11:07:24;;;;;;;5.10;1.33;;;;;;;;;;4994573;28;20910;-77
2024/03/23 11:09:56;;;;;;;4.33;1.20;;;;;;;;;;4996956;28;20426;-78
2024/03/23 11:12:22;;;;;;;6.87;0.87;;;;;;;;;;4995866;28;20477;-77
2024/03/23 11:14:49;;;;;;;4.73;0.97;;;;;;;;;;5008070;28;20464;-75
2024/03/23 11:17:21;;;;;;;3.03;0.70;;;;;;;;;;5016889;28;20178;-75
2024/03/23 11:19:56;;;;;;;5.53;1.10;;;;;;;;;;5016827;28;20408;-77
2024/03/23 11:22:41;;;;;;;2.47;0.40;;;;;;;;;;5016538;28;20503;-76
2024/03/23 11:25:29;;;;;;;4.57;0.60;;;;;;;;;;5016672;28;20414;-75
2024/03/23 11:27:57;;;;;;;3.73;0.50;;;;;;;;;;5016697;28;20421;-75
2024/03/23 11:30:26;;;;;;;5.23;0.73;;;;;;;;;;5016753;28;20821;-76
2024/03/23 11:32:53;;;;;;;4.07;0.30;;;;;;;;;;5016681;28;20472;-76
2024/03/23 11:35:30;;;;;;;4.40;0.80;;;;;;;;;;5016599;28;20956;-78
2024/03/23 11:38:06;;;;;;;3.43;0.97;;;;;;;;;;5016123;28;20412;-75
2024/03/23 11:40:32;;;;;;;6.17;0.80;;;;;;;;;;5016597;28;20421;-76
2024/03/23 11:42:59;;;;;;;4.60;1.23;;;;;;;;;;5016497;28;20468;-76
2024/03/23 11:45:25;;;;;;;2.20;0.50;;;;;;;;;;5016342;28;20418;-76
2024/03/23 11:48:02;;;;;;;2.63;1.00;;;;;;;;;;5016372;28;20417;-78
2024/03/23 11:50:28;;;;;;;2.83;0.80;;;;;;;;;;5016383;28;20210;-75
2024/03/23 11:52:54;;;;;;;5.77;1.63;;;;;;;;;;5015832;28;20512;-77
2024/03/23 11:55:20;;;;;;;5.03;1.70;;;;;;;;;;5016241;28;20716;-75
2024/03/23 11:57:46;;;;;;;6.40;1.60;;;;;;;;;;5016254;28;20181;-75
2024/03/23 12:00:21;;;;;;;5.80;0.87;;;;;;;;;;5016268;28;20444;-75
2024/03/23 12:02:47;;;;;;;2.70;1.03;;;;;;;;;;5016141;28;20409;-75
2024/03/23 12:05:17;;;;;;;3.20;0.40;;;;;;;;;;5014960;28;20830;-79
2024/03/23 12:07:43;;;;;;;3.97;0.60;;;;;;;;;;5015678;28;20243;-75
2024/03/23 12:10:09;;;;;;;4.10;0.43;;;;;;;;;;5016027;28;20426;-76
2024/03/23 12:12:35;;;;;;;1.70;0.40;;;;;;;;;;5015953;28;20472;-78
2024/03/23 12:15:05;;;;;;;1.67;0.50;;;;;;;;;;5015564;28;20450;-76
2024/03/23 12:17:31;;;;;;;3.00;0.30;;;;;;;;;;5015780;28;20414;-76
2024/03/23 12:19:57;;;;;;;1.60;0.47;;;;;;;;;;5015114;28;20409;-77
2024/03/23 12:22:23;;;;;;;4.87;0.70;;;;;;;;;;5012226;28;20643;-78
2024/03/23 12:24:50;;;;;;;2.87;0.47;;;;;;;;;;5003545;28;20183;-78
2024/03/23 12:27:16;;;;;;;4.73;0.90;;;;;;;;;;5005284;28;20520;-78
2024/03/23 12:29:43;;;;;;;2.70;0.40;;;;;;;;;;5006387;28;20766;-78
2024/03/23 12:32:09;;;;;;;1.97;0.27;;;;;;;;;;5015350;28;20233;-78
2024/03/23 12:34:35;;;;;;;2.57;0.77;;;;;;;;;;5013617;28;20795;-78
2024/03/23 12:37:01;;;;;;;3.10;0.47;;;;;;;;;;5009689;28;20598;-78
2024/03/23 12:39:27;;;;;;;8.70;0.40;;;;;;;;;;5001581;28;20437;-78
2024/03/23 12:41:53;;;;;;;3.87;1.00;;;;;;;;;;5015188;28;20412;-78
2024/03/23 12:44:19;;;;;;;4.50;0.40;;;;;;;;;;5014367;28;20488;-78
2024/03/23 12:46:45;;;;;;;2.10;0.43;;;;;;;;;;5008265;28;20530;-78
2024/03/23 12:49:11;;;;;;;1.57;0.30;;;;;;;;;;4993606;28;20176;-78
2024/03/23 12:51:37;;;;;;;2.10;0.30;;;;;;;;;;4993645;28;20474;-78
2024/03/23 12:54:04;;;;;;;1.33;0.30;;;;;;;;;;5005183;28;20451;-79
2024/03/23 12:56:32;;;;;;;1.13;0.50;;;;;;;;;;5006426;28;21746;-76
2024/03/23 12:58:59;;;;;;;3.23;0.80;;;;;;;;;;5005556;28;20413;-75
2024/03/23 13:01:25;;;;;;;3.73;0.90;;;;;;;;;;5006313;28;20417;-78
2024/03/23 13:03:51;;;;;;;2.77;0.50;;;;;;;;;;5003920;28;20829;-77
2024/03/23 13:06:20;;;;;;;1.53;0.30;;;;;;;;;;5005107;28;20438;-77
2024/03/23 13:08:46;;;;;;;0.63;0.30;;;;;;;;;;4995360;28;20421;-78
2024/03/23 13:11:13;;;;;;;1.00;0.30;;;;;;;;;;4995247;28;20415;-76
2024/03/23 13:13:40;;;;;;;2.37;0.60;;;;;;;;;;4995245;28;20418;-80
2024/03/23 13:16:06;;;;;;;0.80;0.30;;;;;;;;;;4995155;28;20428;-77
2024/03/23 13:18:32;;;;;;;2.80;0.30;;;;;;;;;;4997893;28;20516;-75
2024/03/23 13:20:58;;;;;;;2.30;0.50;;;;;;;;;;4994661;28;20503;-76
2024/03/23 13:23:24;;;;;;;2.67;0.30;;;;;;;;;;4994870;28;20465;-77
2024/03/23 13:25:54;;;;;;;3.83;0.60;;;;;;;;;;4993422;28;20421;-80
2024/03/23 13:28:20;;;;;;;5.70;0.50;;;;;;;;;;4994916;28;20430;-78
2024/03/23 13:30:53;;;;;;;1.33;0.37;;;;;;;;;;4993892;28;20827;-79
2024/03/23 13:33:19;;;;;;;2.00;0.53;;;;;;;;;;4996515;28;20476;-80
2024/03/23 13:35:51;;;;;;;4.10;0.50;;;;;;;;;;5010053;28;20428;-79
2024/03/23 13:38:17;;;;;;;4.00;1.50;;;;;;;;;;5013930;28;20422;-79
2024/03/23 13:40:50;;;;;;;2.70;0.53;;;;;;;;;;5014341;28;20786;-77
2024/03/23 13:43:16;;;;;;;1.83;0.53;;;;;;;;;;5014020;28;20516;-79
2024/03/23 13:45:41;;;;;;;1.40;0.57;;;;;;;;;;5014226;28;20962;-76
2024/03/23 13:48:08;;;;;;;3.50;1.43;;;;;;;;;;5014102;28;20513;-78
2024/03/23 13:50:34;;;;;;;0.97;0.50;;;;;;;;;;5014020;28;20185;-76
2024/03/23 13:53:00;;;;;;;1.23;0.33;;;;;;;;;;5013918;28;20537;-76
2024/03/23 13:55:26;;;;;;;1.60;0.40;;;;;;;;;;5010642;28;20417;-74
2024/03/23 13:57:52;;;;;;;1.77;0.67;;;;;;;;;;4994724;28;20580;-76
2024/03/23 14:00:18;;;;;;;2.50;0.20;;;;;;;;;;4993778;28;20473;-75
2024/03/23 14:02:44;;;;;;;3.13;0.20;;;;;;;;;;4994226;28;20240;-74
2024/03/23 14:05:11;;;;;;;2.70;0.33;;;;;;;;;;4993715;28;20417;-74
2024/03/23 14:07:37;;;;;;;1.63;0.40;;;;;;;;;;4993609;28;20421;-74
2024/03/23 14:10:03;;;;;;;2.50;0.40;;;;;;;;;;5006133;28;20431;-74
2024/03/23 14:12:29;;;;;;;2.87;0.30;;;;;;;;;;5013889;28;20476;-75
2024/03/23 14:14:55;;;;;;;1.03;0.20;;;;;;;;;;5013497;28;20466;-75
2024/03/23 14:17:21;;;;;;;2.83;0.60;;;;;;;;;;5013719;28;20429;-78
2024/03/23 14:19:47;;;;;;;2.90;0.90;;;;;;;;;;5013744;28;20426;-75
2024/03/23 14:22:13;;;;;;;4.00;0.20;;;;;;;;;;5013265;28;20448;-75
2024/03/23 14:24:39;;;;;;;2.20;0.30;;;;;;;;;;5013527;28;20619;-76
2024/03/23 14:27:06;;;;;;;0.80;0.40;;;;;;;;;;5012066;28;20224;-75
2024/03/23 14:29:34;;;;;;;2.20;0.57;;;;;;;;;;5013229;28;20424;-75
2024/03/23 14:32:00;;;;;;;1.60;0.30;;;;;;;;;;5013165;28;20518;-75
2024/03/23 14:34:28;;;;;;;2.40;0.40;;;;;;;;;;5012751;28;20420;-76